createdAt,value
2023-03-13T00:01:32.156Z,6.10
2023-03-13T00:04:00.938Z,6.00
2023-03-13T00:06:33.406Z,5.90
2023-03-13T00:09:03.054Z,5.90
2023-03-13T00:11:32.266Z,5.90
2023-03-13T00:14:03.368Z,5.90
2023-03-13T00:16:32.725Z,5.90
2023-03-13T00:19:01.618Z,5.90
2023-03-13T00:21:32.189Z,6.00
2023-03-13T00:24:01.186Z,6.00
2023-03-13T00:26:31.776Z,6.20
2023-03-13T00:29:00.822Z,6.20
2023-03-13T00:31:31.521Z,6.30
2023-03-13T00:34:06.675Z,6.30
2023-03-13T00:36:38.256Z,6.30
2023-03-13T00:39:07.912Z,6.30
2023-03-13T00:41:38.417Z,6.20
2023-03-13T00:44:08.376Z,6.30
2023-03-13T00:46:37.991Z,6.20
2023-03-13T00:49:07.286Z,6.40
2023-03-13T00:51:37.313Z,6.40
2023-03-13T00:54:06.123Z,6.20
2023-03-13T00:56:34.820Z,6.30
2023-03-13T00:59:03.334Z,6.20
2023-03-13T01:01:36.141Z,6.30
2023-03-13T01:04:08.492Z,6.40
2023-03-13T01:06:44.488Z,6.60
2023-03-13T01:09:15.290Z,6.70
2023-03-13T01:11:50.627Z,6.80
2023-03-13T01:14:23.333Z,6.90
2023-03-13T01:16:52.170Z,6.90
2023-03-13T01:19:21.552Z,6.90
2023-03-13T01:21:52.566Z,6.90
2023-03-13T01:24:22.295Z,6.90
2023-03-13T01:26:51.163Z,7.00
2023-03-13T01:29:19.577Z,7.00
2023-03-13T01:31:48.456Z,7.00
2023-03-13T01:34:17.253Z,7.10
2023-03-13T01:36:50.806Z,7.10
2023-03-13T01:39:24.234Z,7.10
2023-03-13T01:41:53.207Z,7.00
2023-03-13T01:44:24.641Z,6.90
2023-03-13T01:46:54.556Z,6.90
2023-03-13T01:49:26.689Z,6.90
2023-03-13T01:51:59.718Z,6.90
2023-03-13T01:54:36.806Z,6.80
2023-03-13T01:57:08.510Z,6.80
2023-03-13T01:59:41.234Z,6.80
2023-03-13T02:02:10.894Z,6.80
2023-03-13T02:04:44.352Z,6.80
2023-03-13T02:07:16.943Z,6.80
2023-03-13T02:09:52.651Z,6.70
2023-03-13T02:12:28.158Z,6.70
2023-03-13T02:15:01.356Z,6.60
2023-03-13T02:17:31.213Z,6.60
2023-03-13T02:20:02.376Z,6.70
2023-03-13T02:22:36.990Z,6.70
2023-03-13T02:25:13.675Z,6.70
2023-03-13T02:27:45.093Z,6.80
2023-03-13T02:30:17.694Z,6.90
2023-03-13T02:32:47.902Z,6.90
2023-03-13T02:35:19.142Z,7.00
2023-03-13T02:37:52.443Z,7.00
2023-03-13T02:40:26.010Z,7.10
2023-03-13T02:42:57.585Z,7.10
2023-03-13T02:45:26.471Z,7.10
2023-03-13T02:47:55.284Z,7.00
2023-03-13T02:50:25.577Z,7.00
2023-03-13T02:52:57.026Z,7.10
2023-03-13T02:55:32.216Z,7.10
2023-03-13T02:58:02.724Z,7.10
2023-03-13T03:00:31.533Z,7.10
2023-03-13T03:03:00.341Z,7.20
2023-03-13T03:05:28.850Z,7.20
2023-03-13T03:07:57.815Z,7.20
2023-03-13T03:10:26.635Z,7.30
2023-03-13T03:12:55.024Z,7.20
2023-03-13T03:15:25.153Z,7.30
2023-03-13T03:17:53.507Z,7.20
2023-03-13T03:20:22.882Z,7.00
2023-03-13T03:22:51.484Z,7.00
2023-03-13T03:25:20.107Z,7.00
2023-03-13T03:27:49.184Z,7.00
2023-03-13T03:30:18.156Z,7.00
2023-03-13T03:32:48.521Z,6.90
2023-03-13T03:35:17.595Z,6.90
2023-03-13T03:37:45.946Z,6.90
2023-03-13T03:40:15.182Z,6.90
2023-03-13T03:42:43.728Z,6.80
2023-03-13T03:45:13.124Z,6.70
2023-03-13T03:47:41.947Z,6.90
2023-03-13T03:50:13.172Z,6.90
2023-03-13T03:52:41.924Z,6.90
2023-03-13T03:55:11.458Z,6.90
2023-03-13T03:57:40.297Z,6.90
2023-03-13T04:00:12.409Z,6.90
2023-03-13T04:02:41.467Z,6.90
2023-03-13T04:05:11.861Z,6.90
2023-03-13T04:07:40.559Z,6.80
2023-03-13T04:10:10.253Z,6.70
2023-03-13T04:12:39.162Z,6.70
2023-03-13T04:15:09.142Z,6.80
2023-03-13T04:17:38.262Z,6.80
2023-03-13T04:20:08.653Z,6.70
2023-03-13T04:22:40.741Z,6.70
2023-03-13T04:25:10.246Z,6.70
2023-03-13T04:27:39.732Z,6.80
2023-03-13T04:30:10.567Z,6.80
2023-03-13T04:32:39.318Z,6.90
2023-03-13T04:35:08.779Z,6.80
2023-03-13T04:37:38.882Z,6.60
2023-03-13T04:40:09.411Z,6.60
2023-03-13T04:42:38.491Z,6.60
2023-03-13T04:45:08.317Z,6.70
2023-03-13T04:47:37.324Z,6.80
2023-03-13T04:50:06.504Z,6.90
2023-03-13T04:52:35.201Z,7.10
2023-03-13T04:55:06.141Z,7.20
2023-03-13T04:57:34.800Z,7.30
2023-03-13T05:00:07.186Z,7.30
2023-03-13T05:02:36.643Z,7.40
2023-03-13T05:05:05.776Z,7.40
2023-03-13T05:07:34.800Z,7.40
2023-03-13T05:10:05.218Z,7.40
2023-03-13T05:12:33.990Z,7.50
2023-03-13T05:15:03.018Z,7.50
2023-03-13T05:17:32.619Z,7.50
2023-03-13T05:20:01.377Z,7.50
2023-03-13T05:22:30.259Z,7.60
2023-03-13T05:24:59.165Z,7.60
2023-03-13T05:27:31.490Z,7.70
2023-03-13T05:30:00.728Z,7.70
2023-03-13T05:32:29.913Z,7.70
2023-03-13T05:34:58.695Z,7.70
2023-03-13T05:37:28.323Z,7.70
2023-03-13T05:39:57.169Z,7.70
2023-03-13T05:42:27.205Z,7.80
2023-03-13T05:44:57.442Z,7.60
2023-03-13T05:47:25.823Z,7.50
2023-03-13T05:49:54.502Z,7.40
2023-03-13T05:52:23.179Z,7.40
2023-03-13T05:54:51.829Z,7.30
2023-03-13T05:57:20.378Z,7.30
2023-03-13T05:59:48.922Z,7.20
2023-03-13T06:02:19.374Z,7.10
2023-03-13T06:04:48.410Z,7.00
2023-03-13T06:07:17.240Z,6.90
2023-03-13T06:09:45.734Z,6.90
2023-03-13T06:12:14.647Z,6.80
2023-03-13T06:14:43.081Z,6.80
2023-03-13T06:17:19.065Z,6.80
2023-03-13T06:19:57.345Z,6.90
2023-03-13T06:22:25.830Z,6.90
2023-03-13T06:24:55.842Z,7.10
2023-03-13T06:27:24.609Z,7.10
2023-03-13T06:29:53.518Z,7.00
2023-03-13T06:32:23.676Z,6.90
2023-03-13T06:34:54.372Z,6.70
2023-03-13T06:37:23.269Z,6.70
2023-03-13T06:39:51.666Z,6.80
2023-03-13T06:42:20.221Z,6.90
2023-03-13T06:44:48.954Z,7.00
2023-03-13T06:47:18.052Z,7.10
2023-03-13T06:49:46.966Z,7.30
2023-03-13T06:52:18.826Z,7.40
2023-03-13T06:54:49.687Z,7.50
2023-03-13T06:57:18.174Z,7.60
2023-03-13T06:59:47.137Z,7.90
2023-03-13T07:02:17.632Z,8.00
2023-03-13T07:04:47.236Z,8.00
2023-03-13T07:07:31.039Z,7.90
2023-03-13T07:10:00.387Z,7.80
2023-03-13T07:12:28.951Z,7.70
2023-03-13T07:14:57.378Z,7.60
2023-03-13T07:17:26.451Z,7.60
2023-03-13T07:19:55.329Z,7.70
2023-03-13T07:22:28.400Z,7.60
2023-03-13T07:24:56.909Z,7.70
2023-03-13T07:27:26.475Z,7.60
2023-03-13T07:29:55.114Z,7.70
2023-03-13T07:32:24.194Z,7.70
2023-03-13T07:34:55.290Z,7.60
2023-03-13T07:37:25.662Z,7.60
2023-03-13T07:39:54.699Z,7.70
2023-03-13T07:42:23.175Z,7.80
2023-03-13T07:44:51.973Z,7.90
2023-03-13T07:47:23.570Z,8.00
2023-03-13T07:49:51.955Z,8.10
2023-03-13T07:52:20.382Z,8.20
2023-03-13T07:54:50.715Z,8.20
2023-03-13T07:57:19.296Z,8.10
2023-03-13T07:59:47.997Z,8.20
2023-03-13T08:02:17.421Z,8.10
2023-03-13T08:04:46.009Z,8.10
2023-03-13T08:07:14.737Z,8.20
2023-03-13T08:09:43.864Z,8.30
2023-03-13T08:12:13.857Z,8.40
2023-03-13T08:14:43.084Z,8.60
2023-03-13T08:17:11.958Z,8.70
2023-03-13T08:19:40.653Z,8.80
2023-03-13T08:22:09.693Z,8.90
2023-03-13T08:24:38.193Z,9.10
2023-03-13T08:27:06.904Z,9.20
2023-03-13T08:29:37.856Z,9.20
2023-03-13T08:32:07.046Z,9.30
2023-03-13T08:34:37.234Z,9.40
2023-03-13T08:37:06.273Z,9.50
2023-03-13T08:39:35.012Z,9.50
2023-03-13T08:42:04.116Z,9.50
2023-03-13T08:44:33.582Z,9.50
2023-03-13T08:47:04.449Z,9.50
2023-03-13T08:49:33.241Z,9.70
2023-03-13T08:52:02.363Z,9.80
2023-03-13T08:54:30.824Z,9.90
2023-03-13T08:57:02.439Z,10.00
2023-03-13T08:59:30.768Z,10.10
2023-03-13T09:02:01.989Z,10.20
2023-03-13T09:04:32.444Z,10.50
2023-03-13T09:07:01.205Z,11.00
2023-03-13T09:09:30.315Z,11.50
2023-03-13T09:12:02.061Z,12.20
2023-03-13T09:14:31.050Z,12.80
2023-03-13T09:17:01.334Z,13.10
2023-03-13T09:19:30.469Z,13.90
2023-03-13T09:22:01.011Z,14.80
2023-03-13T09:24:30.704Z,15.40
2023-03-13T09:27:01.720Z,15.90
2023-03-13T09:29:31.148Z,16.60
2023-03-13T09:32:01.802Z,17.30
2023-03-13T09:34:30.526Z,17.80
2023-03-13T09:37:00.742Z,18.50
2023-03-13T09:39:29.519Z,19.10
2023-03-13T09:42:07.938Z,19.40
2023-03-13T09:44:42.001Z,19.50
2023-03-13T09:47:17.680Z,18.80
2023-03-13T09:49:53.650Z,18.50
2023-03-13T09:52:27.239Z,17.80
2023-03-13T09:55:03.214Z,17.50
2023-03-13T09:57:36.612Z,17.50
2023-03-13T10:00:13.073Z,18.50
2023-03-13T10:02:45.898Z,20.00
2023-03-13T10:05:19.448Z,21.90
2023-03-13T10:07:50.206Z,23.10
2023-03-13T10:10:23.128Z,22.90
2023-03-13T10:12:59.326Z,22.10
2023-03-13T10:15:39.837Z,21.70
2023-03-13T10:18:17.926Z,22.40
2023-03-13T10:20:53.307Z,23.00
2023-03-13T10:23:29.263Z,24.50
2023-03-13T10:25:57.827Z,25.40
2023-03-13T10:28:27.428Z,25.40
2023-03-13T10:31:03.542Z,24.80
2023-03-13T10:33:36.488Z,24.90
2023-03-13T10:36:09.503Z,25.70
2023-03-13T10:38:48.899Z,25.30
2023-03-13T10:41:26.777Z,25.40
2023-03-13T10:44:01.178Z,25.10
2023-03-13T10:46:32.773Z,25.30
2023-03-13T10:49:04.328Z,24.50
2023-03-13T10:51:38.280Z,24.20
2023-03-13T10:54:23.652Z,24.50
2023-03-13T10:56:52.398Z,24.80
2023-03-13T10:59:24.607Z,25.40
2023-03-13T11:01:54.636Z,26.10
2023-03-13T11:04:32.491Z,26.30
2023-03-13T11:07:04.854Z,26.50
2023-03-13T11:09:34.676Z,26.70
2023-03-13T11:12:13.437Z,26.90
2023-03-13T11:14:42.957Z,26.80
2023-03-13T11:17:22.531Z,26.30
2023-03-13T11:20:07.140Z,26.40
2023-03-13T11:22:52.688Z,26.10
2023-03-13T11:25:29.655Z,26.20
2023-03-13T11:28:19.759Z,26.50
2023-03-13T11:31:07.410Z,25.80
2023-03-13T11:33:53.422Z,25.60
2023-03-13T11:36:27.877Z,26.10
2023-03-13T11:39:04.096Z,26.40
2023-03-13T11:42:12.550Z,27.10
2023-03-13T11:44:52.708Z,28.10
2023-03-13T11:47:38.915Z,29.40
2023-03-13T11:50:22.446Z,30.60
2023-03-13T11:53:10.303Z,31.60
2023-03-13T11:56:05.335Z,32.40
2023-03-13T11:59:04.473Z,33.10
2023-03-13T12:01:39.968Z,33.70
2023-03-13T12:04:17.347Z,33.30
2023-03-13T12:06:52.245Z,32.30
2023-03-13T12:09:28.449Z,32.60
2023-03-13T12:12:04.069Z,33.10
2023-03-13T12:14:39.024Z,33.60
2023-03-13T12:17:12.211Z,33.90
2023-03-13T12:19:50.343Z,34.20
2023-03-13T12:22:25.946Z,34.70
2023-03-13T12:25:02.778Z,34.90
2023-03-13T12:27:36.914Z,35.10
2023-03-13T12:30:16.943Z,35.50
2023-03-13T12:32:54.923Z,36.00
2023-03-13T12:35:28.990Z,36.30
2023-03-13T12:38:06.793Z,36.00
2023-03-13T12:40:39.873Z,35.70
2023-03-13T12:43:15.852Z,35.60
2023-03-13T12:46:06.669Z,35.50
2023-03-13T12:48:59.343Z,35.70
2023-03-13T12:51:44.148Z,36.00
2023-03-13T12:54:43.278Z,36.20
2023-03-13T12:57:23.753Z,35.90
2023-03-13T12:59:56.082Z,35.90
2023-03-13T13:02:29.407Z,36.10
2023-03-13T13:05:03.914Z,36.20
2023-03-13T13:07:34.505Z,36.30
2023-03-13T13:10:16.731Z,36.60
2023-03-13T13:12:47.069Z,36.30
2023-03-13T13:15:21.190Z,36.30
2023-03-13T13:18:07.566Z,36.10
2023-03-13T13:20:48.773Z,35.90
2023-03-13T13:23:39.062Z,36.10
2023-03-13T13:26:47.257Z,36.40
2023-03-13T13:29:58.538Z,36.70
2023-03-13T13:32:42.956Z,37.00
2023-03-13T13:35:34.390Z,37.50
2023-03-13T13:38:39.899Z,37.80
2023-03-13T13:41:26.087Z,37.70
2023-03-13T13:44:28.368Z,38.00
2023-03-13T13:46:59.797Z,38.30
2023-03-13T13:49:47.483Z,38.30
2023-03-13T13:52:39.510Z,36.80
2023-03-13T13:55:43.562Z,36.40
2023-03-13T13:58:19.693Z,35.60
2023-03-13T14:00:55.190Z,33.80
2023-03-13T14:03:27.228Z,32.30
2023-03-13T14:05:59.071Z,32.00
2023-03-13T14:08:34.471Z,30.70
2023-03-13T14:11:16.131Z,29.90
2023-03-13T14:13:44.814Z,29.90
2023-03-13T14:16:25.925Z,30.40
2023-03-13T14:18:55.577Z,29.90
2023-03-13T14:21:28.447Z,29.50
2023-03-13T14:23:58.799Z,29.60
2023-03-13T14:26:30.824Z,29.20
2023-03-13T14:29:04.512Z,28.90
2023-03-13T14:31:35.691Z,28.60
2023-03-13T14:34:06.957Z,28.10
2023-03-13T14:36:48.209Z,27.60
2023-03-13T14:39:23.062Z,27.40
2023-03-13T14:41:52.618Z,27.60
2023-03-13T14:44:26.152Z,27.50
2023-03-13T14:46:58.213Z,27.40
2023-03-13T14:49:31.873Z,27.10
2023-03-13T14:52:03.563Z,27.00
2023-03-13T14:54:36.170Z,27.30
2023-03-13T14:57:07.422Z,27.50
2023-03-13T14:59:37.535Z,27.50
2023-03-13T15:02:18.407Z,27.60
2023-03-13T15:04:59.903Z,27.90
2023-03-13T15:07:30.564Z,27.70
2023-03-13T15:10:01.043Z,27.30
2023-03-13T15:12:32.026Z,26.70
2023-03-13T15:15:02.251Z,26.50
2023-03-13T15:17:31.299Z,26.50
2023-03-13T15:20:01.390Z,26.60
2023-03-13T15:22:34.064Z,26.60
2023-03-13T15:25:08.947Z,27.10
2023-03-13T15:27:38.035Z,27.10
2023-03-13T15:30:08.109Z,26.90
2023-03-13T15:32:39.024Z,26.90
2023-03-13T15:35:23.027Z,26.90
2023-03-13T15:37:51.788Z,27.10
2023-03-13T15:40:24.657Z,27.30
2023-03-13T15:42:53.920Z,27.20
2023-03-13T15:45:23.935Z,26.70
2023-03-13T15:47:52.948Z,26.40
2023-03-13T15:50:29.908Z,26.40
2023-03-13T15:53:00.858Z,26.40
2023-03-13T15:55:31.654Z,26.60
2023-03-13T15:58:00.409Z,26.50
2023-03-13T16:00:29.524Z,26.40
2023-03-13T16:02:58.199Z,26.50
2023-03-13T16:05:26.798Z,26.60
2023-03-13T16:07:55.801Z,26.70
2023-03-13T16:10:26.888Z,26.70
2023-03-13T16:12:58.156Z,26.30
2023-03-13T16:15:26.669Z,26.00
2023-03-13T16:17:55.415Z,25.60
2023-03-13T16:20:26.524Z,25.20
2023-03-13T16:22:55.340Z,24.80
2023-03-13T16:25:27.999Z,24.40
2023-03-13T16:27:58.247Z,24.10
2023-03-13T16:30:29.898Z,23.90
2023-03-13T16:32:58.937Z,23.70
2023-03-13T16:35:29.009Z,23.40
2023-03-13T16:37:58.503Z,23.20
2023-03-13T16:40:29.057Z,23.00
2023-03-13T16:43:01.171Z,22.70
2023-03-13T16:45:30.161Z,22.70
2023-03-13T16:47:59.239Z,22.60
2023-03-13T16:50:30.484Z,22.30
2023-03-13T16:52:59.230Z,22.10
2023-03-13T16:55:30.708Z,21.60
2023-03-13T16:58:04.209Z,21.30
2023-03-13T17:00:34.503Z,21.10
2023-03-13T17:03:03.464Z,20.80
2023-03-13T17:05:32.975Z,20.60
2023-03-13T17:08:01.827Z,20.20
2023-03-13T17:10:32.146Z,19.90
2023-03-13T17:13:03.055Z,19.60
2023-03-13T17:15:32.145Z,19.20
2023-03-13T17:18:00.930Z,19.00
2023-03-13T17:20:30.778Z,18.70
2023-03-13T17:23:01.199Z,18.50
2023-03-13T17:25:29.777Z,18.30
2023-03-13T17:27:58.811Z,18.00
2023-03-13T17:30:32.653Z,17.80
2023-03-13T17:33:05.351Z,17.70
2023-03-13T17:35:34.008Z,17.50
2023-03-13T17:38:03.338Z,17.40
2023-03-13T17:40:33.015Z,17.20
2023-03-13T17:43:01.710Z,17.00
2023-03-13T17:45:36.880Z,16.80
2023-03-13T17:48:06.553Z,16.70
2023-03-13T17:50:35.259Z,16.60
2023-03-13T17:53:04.084Z,16.40
2023-03-13T17:55:33.418Z,16.40
2023-03-13T17:58:02.248Z,16.30
2023-03-13T18:00:33.964Z,16.20
2023-03-13T18:03:02.814Z,16.10
2023-03-13T18:05:31.861Z,16.00
2023-03-13T18:08:00.763Z,15.90
2023-03-13T18:10:31.072Z,15.80
2023-03-13T18:13:01.548Z,15.80
2023-03-13T18:15:31.705Z,15.70
2023-03-13T18:18:00.201Z,15.70
2023-03-13T18:20:31.919Z,15.70
2023-03-13T18:23:01.202Z,15.60
2023-03-13T18:25:30.322Z,15.60
2023-03-13T18:27:59.866Z,15.60
2023-03-13T18:30:30.070Z,15.70
2023-03-13T18:33:01.470Z,15.70
2023-03-13T18:35:30.018Z,15.60
2023-03-13T18:37:58.819Z,15.40
2023-03-13T18:40:31.085Z,15.30
2023-03-13T18:43:00.568Z,15.10
2023-03-13T18:45:29.323Z,15.10
2023-03-13T18:48:02.075Z,15.00
2023-03-13T18:50:33.372Z,15.00
2023-03-13T18:53:02.221Z,15.00
2023-03-13T18:55:32.874Z,14.80
2023-03-13T18:58:01.915Z,14.80
2023-03-13T19:00:32.238Z,14.70
2023-03-13T19:03:04.039Z,14.70
2023-03-13T19:05:34.800Z,14.80
2023-03-13T19:08:03.484Z,14.90
2023-03-13T19:10:32.996Z,14.90
2023-03-13T19:13:02.139Z,14.90
2023-03-13T19:15:33.484Z,14.90
2023-03-13T19:18:04.389Z,15.00
2023-03-13T19:20:32.910Z,15.00
2023-03-13T19:23:02.045Z,15.50
2023-03-13T19:25:30.737Z,15.80
2023-03-13T19:27:59.482Z,16.10
2023-03-13T19:30:28.804Z,16.40
2023-03-13T19:32:58.105Z,16.60
2023-03-13T19:35:28.506Z,16.80
2023-03-13T19:37:57.274Z,16.80
2023-03-13T19:40:28.725Z,16.90
2023-03-13T19:42:57.155Z,17.20
2023-03-13T19:45:26.603Z,17.30
2023-03-13T19:47:56.439Z,17.40
2023-03-13T19:50:28.439Z,17.40
2023-03-13T19:52:57.269Z,17.40
2023-03-13T19:55:26.116Z,17.30
2023-03-13T19:57:54.981Z,17.30
2023-03-13T20:00:28.402Z,17.30
2023-03-13T20:02:57.174Z,17.30
2023-03-13T20:05:28.444Z,17.40
2023-03-13T20:07:58.324Z,17.40
2023-03-13T20:10:28.887Z,17.30
2023-03-13T20:12:58.112Z,17.20
2023-03-13T20:15:26.907Z,17.30
2023-03-13T20:17:55.885Z,17.20
2023-03-13T20:20:24.756Z,17.30
2023-03-13T20:22:56.918Z,17.30
2023-03-13T20:25:25.717Z,17.30
2023-03-13T20:27:54.165Z,17.30
2023-03-13T20:30:23.330Z,17.30
2023-03-13T20:32:59.211Z,17.30
2023-03-13T20:35:29.845Z,17.30
2023-03-13T20:38:02.156Z,17.30
2023-03-13T20:40:30.741Z,17.30
2023-03-13T20:42:59.789Z,17.20
2023-03-13T20:45:29.030Z,17.10
2023-03-13T20:47:58.918Z,17.10
2023-03-13T20:50:27.633Z,17.10
2023-03-13T20:52:57.718Z,17.20
2023-03-13T20:55:28.195Z,17.20
2023-03-13T20:57:56.976Z,17.20
2023-03-13T21:00:27.827Z,17.10
2023-03-13T21:02:56.944Z,17.10
2023-03-13T21:05:26.033Z,17.10
2023-03-13T21:07:54.873Z,17.20
2023-03-13T21:10:24.464Z,17.20
2023-03-13T21:12:54.316Z,17.30
2023-03-13T21:15:22.928Z,17.40
2023-03-13T21:17:52.257Z,17.50
2023-03-13T21:20:22.508Z,17.70
2023-03-13T21:22:51.062Z,17.70
2023-03-13T21:25:20.362Z,17.70
2023-03-13T21:27:49.294Z,17.50
2023-03-13T21:30:21.751Z,17.10
2023-03-13T21:32:51.193Z,16.70
2023-03-13T21:35:19.910Z,16.20
2023-03-13T21:37:54.584Z,15.80
2023-03-13T21:40:23.264Z,15.50
2023-03-13T21:42:51.837Z,15.30
2023-03-13T21:45:22.637Z,15.20
2023-03-13T21:47:51.556Z,15.10
2023-03-13T21:52:55.767Z,14.80
2023-03-13T21:55:24.478Z,14.60
2023-03-13T21:57:53.381Z,14.40
2023-03-13T22:00:24.673Z,14.30
2023-03-13T22:02:54.906Z,14.20
2023-03-13T22:05:23.606Z,14.20
2023-03-13T22:07:52.572Z,14.10
2023-03-13T22:10:21.363Z,14.10
2023-03-13T22:12:49.663Z,14.00
2023-03-13T22:15:18.327Z,14.00
2023-03-13T22:17:48.863Z,13.90
2023-03-13T22:20:17.836Z,13.90
2023-03-13T22:22:47.354Z,13.80
2023-03-13T22:25:16.167Z,13.70
2023-03-13T22:27:44.617Z,13.80
2023-03-13T22:30:14.232Z,13.70
2023-03-13T22:32:43.619Z,13.60
2023-03-13T22:35:14.649Z,13.50
2023-03-13T22:37:43.704Z,13.50
2023-03-13T22:40:14.004Z,13.50
2023-03-13T22:42:42.978Z,13.60
2023-03-13T22:45:12.987Z,13.60
2023-03-13T22:47:43.238Z,13.60
2023-03-13T22:50:15.300Z,13.60
2023-03-13T22:52:44.376Z,13.60
2023-03-13T22:55:12.926Z,13.60
2023-03-13T22:57:41.548Z,13.60
2023-03-13T23:00:11.798Z,13.60
2023-03-13T23:02:40.446Z,13.60
2023-03-13T23:05:10.051Z,13.60
2023-03-13T23:07:41.196Z,13.50
2023-03-13T23:10:11.218Z,13.50
2023-03-13T23:12:40.261Z,13.50
2023-03-13T23:15:12.572Z,13.50
2023-03-13T23:17:41.396Z,13.50
2023-03-13T23:20:17.929Z,13.50
2023-03-13T23:22:50.544Z,13.50
2023-03-13T23:25:19.635Z,13.50
2023-03-13T23:27:48.310Z,13.40
2023-03-13T23:30:20.174Z,13.40
2023-03-13T23:32:49.812Z,13.50
2023-03-13T23:35:19.071Z,13.40
2023-03-13T23:37:54.710Z,13.40
2023-03-13T23:40:25.491Z,13.40
2023-03-13T23:42:54.468Z,13.30
2023-03-13T23:45:23.213Z,13.20
2023-03-13T23:47:53.991Z,13.20
2023-03-13T23:50:24.172Z,13.00
2023-03-13T23:52:55.685Z,13.00
2023-03-13T23:55:23.789Z,12.80
2023-03-13T23:57:52.838Z,12.60
